sensor_id;sensor_type;location;lat;lon;timestamp;pressure;altitude;pressure_sealevel;temperature;humidity
51287;BME280;37364;46.974;18.916;2023-06-22T00:00:51;156216.72;;;23.21;100.00
51287;BME280;37364;46.974;18.916;2023-06-22T00:03:25;156208.84;;;23.18;100.00
51287;BME280;37364;46.974;18.916;2023-06-22T00:05:56;156215.41;;;23.21;100.00
51287;BME280;37364;46.974;18.916;2023-06-22T00:08:26;156206.28;;;23.17;100.00
51287;BME280;37364;46.974;18.916;2023-06-22T00:10:56;156221.94;;;23.23;100.00
51287;BME280;37364;46.974;18.916;2023-06-22T00:13:26;156214.06;;;23.20;100.00
51287;BME280;37364;46.974;18.916;2023-06-22T00:15:56;156240.16;;;23.30;100.00
51287;BME280;37364;46.974;18.916;2023-06-22T00:18:29;156220.63;;;23.23;100.00
51287;BME280;37364;46.974;18.916;2023-06-22T00:20:59;156238.88;;;23.30;100.00
51287;BME280;37364;46.974;18.916;2023-06-22T00:23:30;156250.66;;;23.35;100.00
51287;BME280;37364;46.974;18.916;2023-06-22T00:26:02;156234.94;;;23.28;100.00
51287;BME280;37364;46.974;18.916;2023-06-22T00:28:32;156218.00;;;23.22;100.00
51287;BME280;37364;46.974;18.916;2023-06-22T00:31:02;156197.13;;;23.14;100.00
51287;BME280;37364;46.974;18.916;2023-06-22T00:33:35;156212.78;;;23.20;100.00
51287;BME280;37364;46.974;18.916;2023-06-22T00:36:06;156191.91;;;23.12;100.00
51287;BME280;37364;46.974;18.916;2023-06-22T00:38:40;156189.28;;;23.10;100.00
51287;BME280;37364;46.974;18.916;2023-06-22T00:41:10;156160.53;;;22.99;100.00
51287;BME280;37364;46.974;18.916;2023-06-22T00:43:41;156178.84;;;23.06;100.00
51287;BME280;37364;46.974;18.916;2023-06-22T00:46:11;156148.75;;;22.95;100.00
51287;BME280;37364;46.974;18.916;2023-06-22T00:48:45;156153.97;;;22.97;100.00
51287;BME280;37364;46.974;18.916;2023-06-22T00:51:16;156133.13;;;22.88;100.00
51287;BME280;37364;46.974;18.916;2023-06-22T00:53:51;156122.69;;;22.84;100.00
51287;BME280;37364;46.974;18.916;2023-06-22T00:56:22;156160.53;;;22.99;100.00
51287;BME280;37364;46.974;18.916;2023-06-22T00:58:53;156148.75;;;22.95;100.00
51287;BME280;37364;46.974;18.916;2023-06-22T01:01:24;156139.63;;;22.91;100.00
51287;BME280;37364;46.974;18.916;2023-06-22T01:03:58;156137.03;;;22.90;100.00
51287;BME280;37364;46.974;18.916;2023-06-22T01:06:37;156107.03;;;22.78;100.00
51287;BME280;37364;46.974;18.916;2023-06-22T01:09:13;156090.03;;;22.71;100.00
51287;BME280;37364;46.974;18.916;2023-06-22T01:11:47;156078.31;;;22.67;100.00
51287;BME280;37364;46.974;18.916;2023-06-22T01:14:24;156079.59;;;22.67;100.00
51287;BME280;37364;46.974;18.916;2023-06-22T01:16:57;156090.03;;;22.71;100.00
51287;BME280;37364;46.974;18.916;2023-06-22T01:19:41;156090.03;;;22.71;100.00
51287;BME280;37364;46.974;18.916;2023-06-22T01:22:16;156056.13;;;22.58;100.00
51287;BME280;37364;46.974;18.916;2023-06-22T01:24:55;156060.03;;;22.60;100.00
51287;BME280;37364;46.974;18.916;2023-06-22T01:27:33;156075.72;;;22.66;100.00
51287;BME280;37364;46.974;18.916;2023-06-22T01:30:11;156078.31;;;22.67;100.00
51287;BME280;37364;46.974;18.916;2023-06-22T01:32:44;156041.78;;;22.53;100.00
51287;BME280;37364;46.974;18.916;2023-06-22T01:35:15;156026.13;;;22.46;100.00
51287;BME280;37364;46.974;18.916;2023-06-22T01:37:46;156010.44;;;22.40;100.00
51287;BME280;37364;46.974;18.916;2023-06-22T01:40:19;156007.84;;;22.39;100.00
51287;BME280;37364;46.974;18.916;2023-06-22T01:42:51;155998.72;;;22.36;100.00
51287;BME280;37364;46.974;18.916;2023-06-22T01:45:25;155975.22;;;22.26;100.00
51287;BME280;37364;46.974;18.916;2023-06-22T01:47:56;155962.16;;;22.21;100.00
51287;BME280;37364;46.974;18.916;2023-06-22T01:50:27;155973.91;;;22.26;100.00
51287;BME280;37364;46.974;18.916;2023-06-22T01:52:58;155966.06;;;22.23;100.00
51287;BME280;37364;46.974;18.916;2023-06-22T01:55:29;155932.16;;;22.09;100.00
51287;BME280;37364;46.974;18.916;2023-06-22T01:57:59;155956.94;;;22.19;100.00
51287;BME280;37364;46.974;18.916;2023-06-22T02:00:35;155954.31;;;22.18;100.00
51287;BME280;37364;46.974;18.916;2023-06-22T02:03:10;155942.56;;;22.14;100.00
51287;BME280;37364;46.974;18.916;2023-06-22T02:05:46;155925.59;;;22.07;100.00
51287;BME280;37364;46.974;18.916;2023-06-22T02:08:20;155903.44;;;21.98;100.00
51287;BME280;37364;46.974;18.916;2023-06-22T02:10:50;155882.56;;;21.90;100.00
51287;BME280;37364;46.974;18.916;2023-06-22T02:13:24;155882.56;;;21.90;100.00
51287;BME280;37364;46.974;18.916;2023-06-22T02:15:58;155872.16;;;21.86;100.00
51287;BME280;37364;46.974;18.916;2023-06-22T02:18:29;155874.72;;;21.87;100.00
51287;BME280;37364;46.974;18.916;2023-06-22T02:20:59;155872.16;;;21.86;100.00
51287;BME280;37364;46.974;18.916;2023-06-22T02:23:29;155844.72;;;21.75;100.00
51287;BME280;37364;46.974;18.916;2023-06-22T02:26:02;155849.94;;;21.77;100.00
51287;BME280;37364;46.974;18.916;2023-06-22T02:28:33;155813.44;;;21.63;100.00
51287;BME280;37364;46.974;18.916;2023-06-22T02:31:06;155817.38;;;21.64;100.00
51287;BME280;37364;46.974;18.916;2023-06-22T02:33:36;155819.97;;;21.65;100.00
51287;BME280;37364;46.974;18.916;2023-06-22T02:36:06;155812.16;;;21.62;100.00
51287;BME280;37364;46.974;18.916;2023-06-22T02:38:40;155804.31;;;21.59;100.00
51287;BME280;37364;46.974;18.916;2023-06-22T02:41:15;155783.47;;;21.51;100.00
51287;BME280;37364;46.974;18.916;2023-06-22T02:43:48;155819.97;;;21.65;100.00
51287;BME280;37364;46.974;18.916;2023-06-22T02:46:21;155784.75;;;21.51;100.00
51287;BME280;37364;46.974;18.916;2023-06-22T02:48:52;155752.13;;;21.39;100.00
51287;BME280;37364;46.974;18.916;2023-06-22T02:51:22;155739.06;;;21.33;100.00
51287;BME280;37364;46.974;18.916;2023-06-22T02:53:52;155743.00;;;21.35;100.00
51287;BME280;37364;46.974;18.916;2023-06-22T02:56:28;155754.72;;;21.40;100.00
51287;BME280;37364;46.974;18.916;2023-06-22T02:59:00;155746.91;;;21.37;100.00
51287;BME280;37364;46.974;18.916;2023-06-22T03:01:39;155763.91;;;21.43;100.00
51287;BME280;37364;46.974;18.916;2023-06-22T03:04:18;155724.72;;;21.28;100.00
51287;BME280;37364;46.974;18.916;2023-06-22T03:06:48;155729.94;;;21.30;100.00
51287;BME280;37364;46.974;18.916;2023-06-22T03:09:19;155733.84;;;21.31;100.00
51287;BME280;37364;46.974;18.916;2023-06-22T03:11:50;155723.44;;;21.27;100.00
51287;BME280;37364;46.974;18.916;2023-06-22T03:14:21;155731.22;;;21.30;100.00
51287;BME280;37364;46.974;18.916;2023-06-22T03:16:55;155726.00;;;21.28;100.00
51287;BME280;37364;46.974;18.916;2023-06-22T03:19:29;155728.66;;;21.29;100.00
51287;BME280;37364;46.974;18.916;2023-06-22T03:21:59;155722.13;;;21.27;100.00
51287;BME280;37364;46.974;18.916;2023-06-22T03:24:30;155743.00;;;21.35;100.00
51287;BME280;37364;46.974;18.916;2023-06-22T03:27:01;155720.81;;;21.26;100.00
51287;BME280;37364;46.974;18.916;2023-06-22T03:29:34;155748.19;;;21.37;100.00
51287;BME280;37364;46.974;18.916;2023-06-22T03:32:08;155771.75;;;21.46;100.00
51287;BME280;37364;46.974;18.916;2023-06-22T03:34:38;155783.47;;;21.51;100.00
51287;BME280;37364;46.974;18.916;2023-06-22T03:37:08;155759.91;;;21.42;100.00
51287;BME280;37364;46.974;18.916;2023-06-22T03:39:40;155748.19;;;21.37;100.00
51287;BME280;37364;46.974;18.916;2023-06-22T03:42:11;155752.13;;;21.39;100.00
51287;BME280;37364;46.974;18.916;2023-06-22T03:44:42;155758.63;;;21.41;100.00
51287;BME280;37364;46.974;18.916;2023-06-22T03:47:14;155766.47;;;21.44;100.00
51287;BME280;37364;46.974;18.916;2023-06-22T03:49:45;155795.19;;;21.56;100.00
51287;BME280;37364;46.974;18.916;2023-06-22T03:52:15;155799.09;;;21.57;100.00
51287;BME280;37364;46.974;18.916;2023-06-22T03:54:45;155817.38;;;21.64;100.00
51287;BME280;37364;46.974;18.916;2023-06-22T03:57:15;155817.38;;;21.64;100.00
51287;BME280;37364;46.974;18.916;2023-06-22T03:59:45;155823.88;;;21.67;100.00
51287;BME280;37364;46.974;18.916;2023-06-22T04:02:18;155852.59;;;21.78;100.00
51287;BME280;37364;46.974;18.916;2023-06-22T04:04:48;155829.09;;;21.69;100.00
51287;BME280;37364;46.974;18.916;2023-06-22T04:07:19;155851.25;;;21.78;100.00
51287;BME280;37364;46.974;18.916;2023-06-22T04:09:49;155873.44;;;21.86;100.00
51287;BME280;37364;46.974;18.916;2023-06-22T04:12:19;155895.59;;;21.95;100.00
51287;BME280;37364;46.974;18.916;2023-06-22T04:14:49;155906.03;;;21.99;100.00
51287;BME280;37364;46.974;18.916;2023-06-22T04:17:22;155926.94;;;22.07;100.00
51287;BME280;37364;46.974;18.916;2023-06-22T04:19:52;155939.94;;;22.12;100.00
51287;BME280;37364;46.974;18.916;2023-06-22T04:22:22;155968.66;;;22.24;100.00
51287;BME280;37364;46.974;18.916;2023-06-22T04:24:53;155997.41;;;22.35;100.00
51287;BME280;37364;46.974;18.916;2023-06-22T04:27:23;156006.56;;;22.39;100.00
51287;BME280;37364;46.974;18.916;2023-06-22T04:29:53;156041.78;;;22.53;100.00
51287;BME280;37364;46.974;18.916;2023-06-22T04:32:26;156063.94;;;22.61;100.00
51287;BME280;37364;46.974;18.916;2023-06-22T04:34:56;156095.25;;;22.74;100.00
51287;BME280;37364;46.974;18.916;2023-06-22T04:37:27;156121.38;;;22.84;100.00
51287;BME280;37364;46.974;18.916;2023-06-22T04:39:57;156137.03;;;22.90;100.00
51287;BME280;37364;46.974;18.916;2023-06-22T04:42:28;156167.06;;;23.02;100.00
51287;BME280;37364;46.974;18.916;2023-06-22T04:44:59;156168.41;;;23.02;100.00
51287;BME280;37364;46.974;18.916;2023-06-22T04:47:31;156198.41;;;23.14;100.00
51287;BME280;37364;46.974;18.916;2023-06-22T04:50:07;156208.84;;;23.18;100.00
51287;BME280;37364;46.974;18.916;2023-06-22T04:52:37;156206.28;;;23.17;100.00
51287;BME280;37364;46.974;18.916;2023-06-22T04:55:08;156204.94;;;23.17;100.00
51287;BME280;37364;46.974;18.916;2023-06-22T04:57:41;156143.53;;;22.93;100.00
51287;BME280;37364;46.974;18.916;2023-06-22T05:00:16;155958.22;;;22.20;100.00
51287;BME280;37364;46.974;18.916;2023-06-22T05:02:51;155937.38;;;22.11;100.00
51287;BME280;37364;46.974;18.916;2023-06-22T05:05:37;156005.22;;;22.38;100.00
51287;BME280;37364;46.974;18.916;2023-06-22T05:08:07;156030.00;;;22.48;100.00
51287;BME280;37364;46.974;18.916;2023-06-22T05:10:37;156030.00;;;22.48;100.00
51287;BME280;37364;46.974;18.916;2023-06-22T05:13:27;156087.44;;;22.70;100.00
51287;BME280;37364;46.974;18.916;2023-06-22T05:15:57;156105.72;;;22.78;100.00
51287;BME280;37364;46.974;18.916;2023-06-22T05:18:32;156150.06;;;22.95;100.00
51287;BME280;37364;46.974;18.916;2023-06-22T05:21:02;156185.34;;;23.09;100.00
51287;BME280;37364;46.974;18.916;2023-06-22T05:23:32;156161.84;;;23.00;100.00
51287;BME280;37364;46.974;18.916;2023-06-22T05:26:02;156185.34;;;23.09;100.00
51287;BME280;37364;46.974;18.916;2023-06-22T05:28:36;156172.31;;;23.04;100.00
51287;BME280;37364;46.974;18.916;2023-06-22T05:31:06;156180.13;;;23.07;100.00
51287;BME280;37364;46.974;18.916;2023-06-22T05:33:39;156224.50;;;23.24;100.00
51287;BME280;37364;46.974;18.916;2023-06-22T05:36:10;156236.28;;;23.29;100.00
51287;BME280;37364;46.974;18.916;2023-06-22T05:38:40;156236.28;;;23.29;100.00
51287;BME280;37364;46.974;18.916;2023-06-22T05:41:10;156335.50;;;23.68;100.00
51287;BME280;37364;46.974;18.916;2023-06-22T05:43:41;156381.25;;;23.86;100.00
51287;BME280;37364;46.974;18.916;2023-06-22T05:46:11;156361.66;;;23.78;100.00
51287;BME280;37364;46.974;18.916;2023-06-22T05:48:44;156356.41;;;23.76;100.00
51287;BME280;37364;46.974;18.916;2023-06-22T05:51:14;156364.25;;;23.79;100.00
51287;BME280;37364;46.974;18.916;2023-06-22T05:53:44;156360.38;;;23.78;100.00
51287;BME280;37364;46.974;18.916;2023-06-22T05:56:17;156473.94;;;24.22;100.00
51287;BME280;37364;46.974;18.916;2023-06-22T05:58:47;156511.84;;;24.37;100.00
51287;BME280;37364;46.974;18.916;2023-06-22T06:01:18;156400.84;;;23.94;100.00
51287;BME280;37364;46.974;18.916;2023-06-22T06:03:51;156463.50;;;24.18;100.00
51287;BME280;37364;46.974;18.916;2023-06-22T06:06:21;156519.66;;;24.40;100.00
51287;BME280;37364;46.974;18.916;2023-06-22T06:08:55;156586.34;;;24.66;100.00
51287;BME280;37364;46.974;18.916;2023-06-22T06:11:26;156697.41;;;25.10;100.00
51287;BME280;37364;46.974;18.916;2023-06-22T06:13:57;156731.44;;;25.23;100.00
51287;BME280;37364;46.974;18.916;2023-06-22T06:16:27;156807.22;;;25.53;100.00
51287;BME280;37364;46.974;18.916;2023-06-22T06:19:00;156815.09;;;25.56;100.00
51287;BME280;37364;46.974;18.916;2023-06-22T06:21:30;156786.31;;;25.45;100.00
51287;BME280;37364;46.974;18.916;2023-06-22T06:24:00;156804.63;;;25.52;100.00
51287;BME280;37364;46.974;18.916;2023-06-22T06:26:30;156808.50;;;25.54;100.00
51287;BME280;37364;46.974;18.916;2023-06-22T06:29:02;156888.25;;;25.85;100.00
51287;BME280;37364;46.974;18.916;2023-06-22T06:31:33;156885.66;;;25.84;100.00
51287;BME280;37364;46.974;18.916;2023-06-22T06:34:05;156996.81;;;26.28;100.00
51287;BME280;37364;46.974;18.916;2023-06-22T06:36:36;157024.31;;;26.38;100.00
51287;BME280;37364;46.974;18.916;2023-06-22T06:39:06;157102.78;;;26.69;100.00
51287;BME280;37364;46.974;18.916;2023-06-22T06:41:36;157208.72;;;27.11;100.00
51287;BME280;37364;46.974;18.916;2023-06-22T06:44:14;157275.53;;;27.37;100.00
51287;BME280;37364;46.974;18.916;2023-06-22T06:46:44;157302.97;;;27.48;100.00
51287;BME280;37364;46.974;18.916;2023-06-22T06:49:17;157374.97;;;27.76;100.00
51287;BME280;37364;46.974;18.916;2023-06-22T06:51:47;157390.66;;;27.82;100.00
51287;BME280;37364;46.974;18.916;2023-06-22T06:54:17;157490.19;;;28.21;100.00
51287;BME280;37364;46.974;18.916;2023-06-22T06:56:48;157494.06;;;28.23;100.00
51287;BME280;37364;46.974;18.916;2023-06-22T06:59:18;157431.28;;;27.98;100.00
51287;BME280;37364;46.974;18.916;2023-06-22T07:01:49;157474.47;;;28.15;100.00
51287;BME280;37364;46.974;18.916;2023-06-22T07:04:21;157477.06;;;28.16;100.00
51287;BME280;37364;46.974;18.916;2023-06-22T07:06:52;157495.41;;;28.23;100.00
51287;BME280;37364;46.974;18.916;2023-06-22T07:09:22;157528.13;;;28.36;100.00
51287;BME280;37364;46.974;18.916;2023-06-22T07:11:52;157547.75;;;28.44;100.00
51287;BME280;37364;46.974;18.916;2023-06-22T07:14:22;157482.31;;;28.18;100.00
51287;BME280;37364;46.974;18.916;2023-06-22T07:16:52;157546.47;;;28.43;100.00
51287;BME280;37364;46.974;18.916;2023-06-22T07:19:28;157547.75;;;28.44;100.00
51287;BME280;37364;46.974;18.916;2023-06-22T07:21:59;157484.94;;;28.19;100.00
51287;BME280;37364;46.974;18.916;2023-06-22T07:24:29;157461.38;;;28.10;100.00
51287;BME280;37364;46.974;18.916;2023-06-22T07:26:59;157495.41;;;28.23;100.00
51287;BME280;37364;46.974;18.916;2023-06-22T07:29:30;157422.09;;;27.94;100.00
51287;BME280;37364;46.974;18.916;2023-06-22T07:32:00;157409.00;;;27.89;100.00
51287;BME280;37364;46.974;18.916;2023-06-22T07:34:34;157488.84;;;28.20;100.00
51287;BME280;37364;46.974;18.916;2023-06-22T07:37:05;157638.13;;;28.79;100.00
51287;BME280;37364;46.974;18.916;2023-06-22T07:39:35;157670.88;;;28.92;100.00
51287;BME280;37364;46.974;18.916;2023-06-22T07:42:06;157572.66;;;28.53;100.00
51287;BME280;37364;46.974;18.916;2023-06-22T07:44:36;157660.41;;;28.88;100.00
51287;BME280;37364;46.974;18.916;2023-06-22T07:47:06;157825.47;;;29.52;100.00
51287;BME280;37364;46.974;18.916;2023-06-22T07:49:39;157707.53;;;29.06;100.00
51287;BME280;37364;46.974;18.916;2023-06-22T07:52:09;157676.13;;;28.94;99.70
51287;BME280;37364;46.974;18.916;2023-06-22T07:54:39;157729.88;;;29.15;100.00
51287;BME280;37364;46.974;18.916;2023-06-22T07:57:10;157841.19;;;29.58;100.00
51287;BME280;37364;46.974;18.916;2023-06-22T07:59:42;157860.81;;;29.66;100.00
51287;BME280;37364;46.974;18.916;2023-06-22T08:02:13;157770.47;;;29.31;100.00
51287;BME280;37364;46.974;18.916;2023-06-22T08:04:45;157826.75;;;29.53;100.00
51287;BME280;37364;46.974;18.916;2023-06-22T08:07:16;157866.06;;;29.68;100.00
51287;BME280;37364;46.974;18.916;2023-06-22T08:09:47;157994.47;;;30.19;99.47
51287;BME280;37364;46.974;18.916;2023-06-22T08:12:19;157976.16;;;30.11;98.58
51287;BME280;37364;46.974;18.916;2023-06-22T08:14:49;157870.00;;;29.70;100.00
51287;BME280;37364;46.974;18.916;2023-06-22T08:17:19;157928.97;;;29.93;99.05
51287;BME280;37364;46.974;18.916;2023-06-22T08:19:52;157778.28;;;29.34;100.00
51287;BME280;37364;46.974;18.916;2023-06-22T08:22:22;157763.88;;;29.28;100.00
51287;BME280;37364;46.974;18.916;2023-06-22T08:24:52;157839.88;;;29.58;100.00
51287;BME280;37364;46.974;18.916;2023-06-22T08:27:22;157854.25;;;29.64;100.00
51287;BME280;37364;46.974;18.916;2023-06-22T08:29:55;157812.34;;;29.47;100.00
51287;BME280;37364;46.974;18.916;2023-06-22T08:32:26;157820.22;;;29.50;100.00
51287;BME280;37364;46.974;18.916;2023-06-22T08:34:59;157918.47;;;29.89;99.30
51287;BME280;37364;46.974;18.916;2023-06-22T08:37:29;158029.94;;;30.32;100.00
51287;BME280;37364;46.974;18.916;2023-06-22T08:40:04;158019.34;;;30.28;100.00
51287;BME280;37364;46.974;18.916;2023-06-22T08:42:36;158195.06;;;30.97;97.49
51287;BME280;37364;46.974;18.916;2023-06-22T08:45:08;158054.78;;;30.42;97.93
51287;BME280;37364;46.974;18.916;2023-06-22T08:47:38;157978.75;;;30.12;100.00
51287;BME280;37364;46.974;18.916;2023-06-22T08:50:12;158122.94;;;30.69;98.04
51287;BME280;37364;46.974;18.916;2023-06-22T08:52:42;158205.59;;;31.01;99.23
51287;BME280;37364;46.974;18.916;2023-06-22T08:55:13;158234.38;;;31.12;97.17
51287;BME280;37364;46.974;18.916;2023-06-22T08:57:43;158168.81;;;30.87;99.05
51287;BME280;37364;46.974;18.916;2023-06-22T09:00:14;158318.34;;;31.45;96.75
51287;BME280;37364;46.974;18.916;2023-06-22T09:02:48;158338.03;;;31.53;94.26
51287;BME280;37364;46.974;18.916;2023-06-22T09:05:21;158402.28;;;31.78;97.93
51287;BME280;37364;46.974;18.916;2023-06-22T09:07:52;158452.09;;;31.98;94.67
51287;BME280;37364;46.974;18.916;2023-06-22T09:10:26;158410.09;;;31.81;92.78
51287;BME280;37364;46.974;18.916;2023-06-22T09:12:57;158362.94;;;31.63;95.78
51287;BME280;37364;46.974;18.916;2023-06-22T09:15:27;158327.53;;;31.49;92.66
51287;BME280;37364;46.974;18.916;2023-06-22T09:17:58;158404.88;;;31.79;93.45
51287;BME280;37364;46.974;18.916;2023-06-22T09:20:31;158265.88;;;31.25;94.89
51287;BME280;37364;46.974;18.916;2023-06-22T09:23:01;158389.13;;;31.73;96.63
51287;BME280;37364;46.974;18.916;2023-06-22T09:25:32;158438.97;;;31.92;91.79
51287;BME280;37364;46.974;18.916;2023-06-22T09:28:03;158461.34;;;32.01;97.44
51287;BME280;37364;46.974;18.916;2023-06-22T09:30:33;158495.41;;;32.15;91.58
51287;BME280;37364;46.974;18.916;2023-06-22T09:33:03;158180.69;;;30.91;92.58
51287;BME280;37364;46.974;18.916;2023-06-22T09:35:36;158133.44;;;30.73;100.00
51287;BME280;37364;46.974;18.916;2023-06-22T09:38:07;158386.53;;;31.72;97.39
51287;BME280;37364;46.974;18.916;2023-06-22T09:40:37;158543.94;;;32.34;95.97
51287;BME280;37364;46.974;18.916;2023-06-22T09:43:07;158563.63;;;32.41;94.45
51287;BME280;37364;46.974;18.916;2023-06-22T09:45:37;158550.47;;;32.36;96.00
51287;BME280;37364;46.974;18.916;2023-06-22T09:48:09;158481.00;;;32.09;91.84
51287;BME280;37364;46.974;18.916;2023-06-22T09:50:42;158520.31;;;32.24;91.81
51287;BME280;37364;46.974;18.916;2023-06-22T09:53:12;158555.72;;;32.38;92.75
51287;BME280;37364;46.974;18.916;2023-06-22T09:55:42;158567.56;;;32.43;93.83
51287;BME280;37364;46.974;18.916;2023-06-22T09:58:12;158580.66;;;32.48;90.90
51287;BME280;37364;46.974;18.916;2023-06-22T10:00:43;158744.75;;;33.12;92.03
51287;BME280;37364;46.974;18.916;2023-06-22T10:03:13;158706.66;;;32.97;91.36
51287;BME280;37364;46.974;18.916;2023-06-22T10:05:46;158812.97;;;33.39;91.02
51287;BME280;37364;46.974;18.916;2023-06-22T10:08:17;158853.66;;;33.55;89.63
51287;BME280;37364;46.974;18.916;2023-06-22T10:10:47;158582.00;;;32.48;85.84
51287;BME280;37364;46.974;18.916;2023-06-22T10:13:19;158442.91;;;31.94;90.30
51287;BME280;37364;46.974;18.916;2023-06-22T10:15:50;158613.50;;;32.61;92.39
51287;BME280;37364;46.974;18.916;2023-06-22T10:18:20;158610.88;;;32.60;90.36
51287;BME280;37364;46.974;18.916;2023-06-22T10:20:53;158412.75;;;31.82;91.60
51287;BME280;37364;46.974;18.916;2023-06-22T10:23:23;158499.34;;;32.16;91.72
51287;BME280;37364;46.974;18.916;2023-06-22T10:25:53;158507.22;;;32.19;91.95
51287;BME280;37364;46.974;18.916;2023-06-22T10:28:25;158746.03;;;33.13;92.15
51287;BME280;37364;46.974;18.916;2023-06-22T10:30:58;158854.97;;;33.55;90.50
51287;BME280;37364;46.974;18.916;2023-06-22T10:33:29;158852.38;;;33.54;87.11
51287;BME280;37364;46.974;18.916;2023-06-22T10:36:02;158803.78;;;33.35;88.20
51287;BME280;37364;46.974;18.916;2023-06-22T10:38:32;158864.16;;;33.59;85.02
51287;BME280;37364;46.974;18.916;2023-06-22T10:41:02;158795.91;;;33.32;88.05
51287;BME280;37364;46.974;18.916;2023-06-22T10:43:33;158900.94;;;33.73;90.45
51287;BME280;37364;46.974;18.916;2023-06-22T10:46:03;158920.63;;;33.81;86.61
51287;BME280;37364;46.974;18.916;2023-06-22T10:48:33;158840.53;;;33.49;85.69
51287;BME280;37364;46.974;18.916;2023-06-22T10:51:06;158868.09;;;33.60;87.16
51287;BME280;37364;46.974;18.916;2023-06-22T10:53:36;158858.91;;;33.57;85.14
51287;BME280;37364;46.974;18.916;2023-06-22T10:56:06;158858.91;;;33.57;86.16
51287;BME280;37364;46.974;18.916;2023-06-22T10:58:37;158797.25;;;33.33;84.78
51287;BME280;37364;46.974;18.916;2023-06-22T11:01:07;158718.47;;;33.02;84.69
51287;BME280;37364;46.974;18.916;2023-06-22T11:03:56;158774.91;;;33.24;84.90
51287;BME280;37364;46.974;18.916;2023-06-22T11:06:29;158761.81;;;33.19;83.43
51287;BME280;37364;46.974;18.916;2023-06-22T11:08:59;158822.19;;;33.42;84.78
51287;BME280;37364;46.974;18.916;2023-06-22T11:11:51;158956.06;;;33.95;85.46
51287;BME280;37364;46.974;18.916;2023-06-22T11:14:22;158824.78;;;33.43;83.05
51287;BME280;37364;46.974;18.916;2023-06-22T11:16:52;158730.25;;;33.06;82.90
51287;BME280;37364;46.974;18.916;2023-06-22T11:19:23;158903.59;;;33.74;81.71
51287;BME280;37364;46.974;18.916;2023-06-22T11:21:56;158963.94;;;33.98;84.25
51287;BME280;37364;46.974;18.916;2023-06-22T11:24:26;159023.09;;;34.21;87.49
51287;BME280;37364;46.974;18.916;2023-06-22T11:26:56;159139.97;;;34.66;85.38
51287;BME280;37364;46.974;18.916;2023-06-22T11:29:26;158898.34;;;33.72;81.88
51287;BME280;37364;46.974;18.916;2023-06-22T11:32:05;158948.22;;;33.92;82.07
51287;BME280;37364;46.974;18.916;2023-06-22T11:34:38;158966.56;;;33.99;79.52
51287;BME280;37364;46.974;18.916;2023-06-22T11:37:10;158978.41;;;34.03;79.61
51287;BME280;37364;46.974;18.916;2023-06-22T11:39:41;158923.28;;;33.82;83.92
51287;BME280;37364;46.974;18.916;2023-06-22T11:42:19;158954.75;;;33.94;82.40
51287;BME280;37364;46.974;18.916;2023-06-22T11:44:50;158751.28;;;33.15;85.97
51287;BME280;37364;46.974;18.916;2023-06-22T11:47:22;158911.44;;;33.77;79.81
51287;BME280;37364;46.974;18.916;2023-06-22T11:49:52;158949.50;;;33.92;82.39
51287;BME280;37364;46.974;18.916;2023-06-22T11:52:25;158991.50;;;34.08;80.92
51287;BME280;37364;46.974;18.916;2023-06-22T11:54:55;158921.94;;;33.81;78.57
51287;BME280;37364;46.974;18.916;2023-06-22T11:57:26;158992.84;;;34.09;80.00
51287;BME280;37364;46.974;18.916;2023-06-22T11:59:56;159037.53;;;34.26;78.73
51287;BME280;37364;46.974;18.916;2023-06-22T12:02:27;159074.28;;;34.41;78.58
51287;BME280;37364;46.974;18.916;2023-06-22T12:04:57;159015.19;;;34.18;77.30
51287;BME280;37364;46.974;18.916;2023-06-22T12:07:31;159074.28;;;34.41;81.81
51287;BME280;37364;46.974;18.916;2023-06-22T12:10:02;159057.19;;;34.34;81.31
51287;BME280;37364;46.974;18.916;2023-06-22T12:12:32;159113.66;;;34.56;77.24
51287;BME280;37364;46.974;18.916;2023-06-22T12:15:02;159004.63;;;34.14;75.77
51287;BME280;37364;46.974;18.916;2023-06-22T12:17:34;159097.91;;;34.50;77.66
51287;BME280;37364;46.974;18.916;2023-06-22T12:20:06;159082.13;;;34.44;77.29
51287;BME280;37364;46.974;18.916;2023-06-22T12:22:40;159076.88;;;34.42;73.90
51287;BME280;37364;46.974;18.916;2023-06-22T12:25:11;159105.75;;;34.53;77.13
51287;BME280;37364;46.974;18.916;2023-06-22T12:27:41;159171.47;;;34.79;77.64
51287;BME280;37364;46.974;18.916;2023-06-22T12:30:11;159108.41;;;34.54;76.47
51287;BME280;37364;46.974;18.916;2023-06-22T12:32:42;159195.09;;;34.88;75.83
51287;BME280;37364;46.974;18.916;2023-06-22T12:35:12;159200.34;;;34.90;76.29
51287;BME280;37364;46.974;18.916;2023-06-22T12:37:45;159276.56;;;35.20;77.46
51287;BME280;37364;46.974;18.916;2023-06-22T12:40:16;159317.28;;;35.36;81.28
51287;BME280;37364;46.974;18.916;2023-06-22T12:42:46;159231.84;;;35.02;74.99
51287;BME280;37364;46.974;18.916;2023-06-22T12:45:17;159191.16;;;34.86;72.78
51287;BME280;37364;46.974;18.916;2023-06-22T12:47:48;159166.22;;;34.77;72.85
51287;BME280;37364;46.974;18.916;2023-06-22T12:50:19;159087.38;;;34.46;70.86
51287;BME280;37364;46.974;18.916;2023-06-22T12:52:52;158973.16;;;34.01;71.43
51287;BME280;37364;46.974;18.916;2023-06-22T12:55:22;159090.00;;;34.47;72.08